sensor_id;sensor_type;location;lat;lon;timestamp;P1;durP1;ratioP1;P2;durP2;ratioP2
10481;SDS011;5288;42.334;23.876;2022-07-15T00:02:09;2.73;;;2.20;;
10481;SDS011;5288;42.334;23.876;2022-07-15T00:04:36;3.93;;;2.23;;
10481;SDS011;5288;42.334;23.876;2022-07-15T00:07:04;2.50;;;2.30;;
10481;SDS011;5288;42.334;23.876;2022-07-15T00:09:33;2.40;;;2.20;;
10481;SDS011;5288;42.334;23.876;2022-07-15T00:12:18;2.10;;;2.00;;
10481;SDS011;5288;42.334;23.876;2022-07-15T00:14:45;2.60;;;2.10;;
10481;SDS011;5288;42.334;23.876;2022-07-15T00:17:12;2.30;;;2.10;;
10481;SDS011;5288;42.334;23.876;2022-07-15T00:19:39;2.63;;;2.10;;
10481;SDS011;5288;42.334;23.876;2022-07-15T00:22:06;4.87;;;2.67;;
10481;SDS011;5288;42.334;23.876;2022-07-15T00:24:35;2.27;;;2.07;;
10481;SDS011;5288;42.334;23.876;2022-07-15T00:27:02;5.73;;;2.30;;
10481;SDS011;5288;42.334;23.876;2022-07-15T00:29:29;4.23;;;2.43;;
10481;SDS011;5288;42.334;23.876;2022-07-15T00:31:57;2.37;;;2.17;;
10481;SDS011;5288;42.334;23.876;2022-07-15T00:34:24;2.97;;;2.27;;
10481;SDS011;5288;42.334;23.876;2022-07-15T00:36:51;4.67;;;2.30;;
10481;SDS011;5288;42.334;23.876;2022-07-15T00:39:20;2.50;;;2.30;;
10481;SDS011;5288;42.334;23.876;2022-07-15T00:41:49;2.30;;;2.00;;
10481;SDS011;5288;42.334;23.876;2022-07-15T00:44:16;3.97;;;2.30;;
10481;SDS011;5288;42.334;23.876;2022-07-15T00:46:43;2.57;;;2.27;;
10481;SDS011;5288;42.334;23.876;2022-07-15T00:49:11;3.13;;;2.40;;
10481;SDS011;5288;42.334;23.876;2022-07-15T00:51:40;2.37;;;2.17;;
10481;SDS011;5288;42.334;23.876;2022-07-15T00:54:08;2.73;;;2.47;;
10481;SDS011;5288;42.334;23.876;2022-07-15T00:56:37;2.17;;;1.97;;
10481;SDS011;5288;42.334;23.876;2022-07-15T00:59:07;3.97;;;2.70;;
10481;SDS011;5288;42.334;23.876;2022-07-15T01:01:36;3.23;;;2.10;;
10481;SDS011;5288;42.334;23.876;2022-07-15T01:04:04;3.50;;;2.10;;
10481;SDS011;5288;42.334;23.876;2022-07-15T01:06:32;2.27;;;2.07;;
10481;SDS011;5288;42.334;23.876;2022-07-15T01:08:59;2.53;;;2.33;;
10481;SDS011;5288;42.334;23.876;2022-07-15T01:11:26;2.33;;;1.97;;
10481;SDS011;5288;42.334;23.876;2022-07-15T01:13:55;2.20;;;2.00;;
10481;SDS011;5288;42.334;23.876;2022-07-15T01:16:24;4.10;;;2.10;;
10481;SDS011;5288;42.334;23.876;2022-07-15T01:18:52;4.33;;;2.20;;
10481;SDS011;5288;42.334;23.876;2022-07-15T01:21:21;4.80;;;2.43;;
10481;SDS011;5288;42.334;23.876;2022-07-15T01:23:48;3.33;;;1.87;;
10481;SDS011;5288;42.334;23.876;2022-07-15T01:26:15;2.53;;;2.10;;
10481;SDS011;5288;42.334;23.876;2022-07-15T01:28:43;3.20;;;2.20;;
10481;SDS011;5288;42.334;23.876;2022-07-15T01:31:10;2.60;;;2.40;;
10481;SDS011;5288;42.334;23.876;2022-07-15T01:33:37;2.83;;;2.63;;
10481;SDS011;5288;42.334;23.876;2022-07-15T01:36:05;3.47;;;2.43;;
10481;SDS011;5288;42.334;23.876;2022-07-15T01:38:34;2.63;;;2.20;;
10481;SDS011;5288;42.334;23.876;2022-07-15T01:41:02;6.40;;;2.23;;
10481;SDS011;5288;42.334;23.876;2022-07-15T01:43:29;5.70;;;3.20;;
10481;SDS011;5288;42.334;23.876;2022-07-15T01:45:56;3.33;;;2.13;;
10481;SDS011;5288;42.334;23.876;2022-07-15T01:48:23;3.20;;;2.40;;
10481;SDS011;5288;42.334;23.876;2022-07-15T01:51:07;5.50;;;2.40;;
10481;SDS011;5288;42.334;23.876;2022-07-15T01:53:36;4.93;;;2.50;;
10481;SDS011;5288;42.334;23.876;2022-07-15T01:56:03;3.60;;;3.00;;
10481;SDS011;5288;42.334;23.876;2022-07-15T01:58:30;3.30;;;3.00;;
10481;SDS011;5288;42.334;23.876;2022-07-15T02:00:57;3.83;;;3.40;;
10481;SDS011;5288;42.334;23.876;2022-07-15T02:03:25;4.40;;;3.10;;
10481;SDS011;5288;42.334;23.876;2022-07-15T02:05:52;3.57;;;3.10;;
10481;SDS011;5288;42.334;23.876;2022-07-15T02:08:19;7.00;;;3.40;;
10481;SDS011;5288;42.334;23.876;2022-07-15T02:10:47;4.70;;;3.50;;
10481;SDS011;5288;42.334;23.876;2022-07-15T02:13:14;3.40;;;3.10;;
10481;SDS011;5288;42.334;23.876;2022-07-15T02:15:42;6.40;;;4.20;;
10481;SDS011;5288;42.334;23.876;2022-07-15T02:18:09;9.50;;;4.10;;
10481;SDS011;5288;42.334;23.876;2022-07-15T02:20:36;4.30;;;3.90;;
10481;SDS011;5288;42.334;23.876;2022-07-15T02:23:03;5.93;;;3.60;;
10481;SDS011;5288;42.334;23.876;2022-07-15T02:25:31;6.27;;;3.07;;
10481;SDS011;5288;42.334;23.876;2022-07-15T02:28:02;3.63;;;3.10;;
10481;SDS011;5288;42.334;23.876;2022-07-15T02:30:31;5.60;;;3.20;;
10481;SDS011;5288;42.334;23.876;2022-07-15T02:33:00;5.07;;;3.77;;
10481;SDS011;5288;42.334;23.876;2022-07-15T02:35:28;6.90;;;3.70;;
10481;SDS011;5288;42.334;23.876;2022-07-15T02:37:56;3.73;;;3.30;;
10481;SDS011;5288;42.334;23.876;2022-07-15T02:40:25;3.67;;;3.23;;
10481;SDS011;5288;42.334;23.876;2022-07-15T02:42:53;5.57;;;3.37;;
10481;SDS011;5288;42.334;23.876;2022-07-15T02:45:23;6.97;;;3.27;;
10481;SDS011;5288;42.334;23.876;2022-07-15T02:47:52;4.27;;;3.87;;
10481;SDS011;5288;42.334;23.876;2022-07-15T02:50:19;3.60;;;3.30;;
10481;SDS011;5288;42.334;23.876;2022-07-15T02:52:47;4.53;;;3.63;;
10481;SDS011;5288;42.334;23.876;2022-07-15T02:55:15;4.27;;;3.87;;
10481;SDS011;5288;42.334;23.876;2022-07-15T02:57:43;5.70;;;3.40;;
10481;SDS011;5288;42.334;23.876;2022-07-15T03:00:11;6.07;;;3.33;;
10481;SDS011;5288;42.334;23.876;2022-07-15T03:02:41;7.40;;;3.37;;
10481;SDS011;5288;42.334;23.876;2022-07-15T03:05:08;8.33;;;3.60;;
10481;SDS011;5288;42.334;23.876;2022-07-15T03:07:37;5.43;;;3.33;;
10481;SDS011;5288;42.334;23.876;2022-07-15T03:10:05;4.37;;;3.40;;
10481;SDS011;5288;42.334;23.876;2022-07-15T03:12:33;4.27;;;3.43;;
10481;SDS011;5288;42.334;23.876;2022-07-15T03:15:00;8.50;;;4.50;;
10481;SDS011;5288;42.334;23.876;2022-07-15T03:17:28;3.77;;;3.43;;
10481;SDS011;5288;42.334;23.876;2022-07-15T03:19:56;6.00;;;3.50;;
10481;SDS011;5288;42.334;23.876;2022-07-15T03:22:24;4.20;;;3.80;;
10481;SDS011;5288;42.334;23.876;2022-07-15T03:24:52;6.83;;;3.80;;
10481;SDS011;5288;42.334;23.876;2022-07-15T03:27:19;4.57;;;4.07;;
10481;SDS011;5288;42.334;23.876;2022-07-15T03:29:46;3.60;;;3.30;;
10481;SDS011;5288;42.334;23.876;2022-07-15T03:32:14;5.13;;;3.43;;
10481;SDS011;5288;42.334;23.876;2022-07-15T03:34:42;5.20;;;3.43;;
10481;SDS011;5288;42.334;23.876;2022-07-15T03:37:11;4.23;;;3.00;;
10481;SDS011;5288;42.334;23.876;2022-07-15T03:39:38;3.93;;;3.50;;
10481;SDS011;5288;42.334;23.876;2022-07-15T03:42:05;3.60;;;3.20;;
10481;SDS011;5288;42.334;23.876;2022-07-15T03:44:32;4.27;;;3.70;;
10481;SDS011;5288;42.334;23.876;2022-07-15T03:46:59;4.73;;;3.60;;
10481;SDS011;5288;42.334;23.876;2022-07-15T03:49:26;5.30;;;3.53;;
10481;SDS011;5288;42.334;23.876;2022-07-15T03:51:54;6.27;;;4.00;;
10481;SDS011;5288;42.334;23.876;2022-07-15T03:54:22;4.07;;;3.53;;
10481;SDS011;5288;42.334;23.876;2022-07-15T03:56:50;6.77;;;3.17;;
10481;SDS011;5288;42.334;23.876;2022-07-15T03:59:17;6.67;;;3.50;;
10481;SDS011;5288;42.334;23.876;2022-07-15T04:01:45;6.00;;;3.43;;
10481;SDS011;5288;42.334;23.876;2022-07-15T04:04:13;3.43;;;3.10;;
10481;SDS011;5288;42.334;23.876;2022-07-15T04:06:41;3.90;;;3.50;;
10481;SDS011;5288;42.334;23.876;2022-07-15T04:09:08;3.93;;;3.43;;
10481;SDS011;5288;42.334;23.876;2022-07-15T04:11:37;3.90;;;3.50;;
10481;SDS011;5288;42.334;23.876;2022-07-15T04:14:07;3.97;;;3.33;;
10481;SDS011;5288;42.334;23.876;2022-07-15T04:16:36;5.60;;;3.57;;
10481;SDS011;5288;42.334;23.876;2022-07-15T04:19:03;3.70;;;3.13;;
10481;SDS011;5288;42.334;23.876;2022-07-15T04:21:30;5.83;;;3.47;;
10481;SDS011;5288;42.334;23.876;2022-07-15T04:23:58;5.73;;;3.47;;
10481;SDS011;5288;42.334;23.876;2022-07-15T04:26:25;5.03;;;3.47;;
10481;SDS011;5288;42.334;23.876;2022-07-15T04:28:54;5.57;;;3.00;;
10481;SDS011;5288;42.334;23.876;2022-07-15T04:31:21;3.57;;;3.27;;
10481;SDS011;5288;42.334;23.876;2022-07-15T04:33:48;3.90;;;3.50;;
10481;SDS011;5288;42.334;23.876;2022-07-15T04:36:15;3.67;;;3.37;;
10481;SDS011;5288;42.334;23.876;2022-07-15T04:38:42;4.20;;;3.30;;
10481;SDS011;5288;42.334;23.876;2022-07-15T04:41:10;4.87;;;3.30;;
10481;SDS011;5288;42.334;23.876;2022-07-15T04:43:37;3.77;;;3.30;;
10481;SDS011;5288;42.334;23.876;2022-07-15T04:46:05;4.27;;;3.30;;
10481;SDS011;5288;42.334;23.876;2022-07-15T04:48:32;3.80;;;3.40;;
10481;SDS011;5288;42.334;23.876;2022-07-15T04:51:16;7.00;;;3.43;;
10481;SDS011;5288;42.334;23.876;2022-07-15T04:53:43;4.30;;;3.00;;
10481;SDS011;5288;42.334;23.876;2022-07-15T04:56:11;6.10;;;2.97;;
10481;SDS011;5288;42.334;23.876;2022-07-15T04:58:38;3.30;;;3.00;;
10481;SDS011;5288;42.334;23.876;2022-07-15T05:01:07;3.93;;;3.33;;
10481;SDS011;5288;42.334;23.876;2022-07-15T05:03:34;6.43;;;3.47;;
10481;SDS011;5288;42.334;23.876;2022-07-15T05:06:01;6.10;;;3.37;;
10481;SDS011;5288;42.334;23.876;2022-07-15T05:08:28;3.77;;;3.47;;
10481;SDS011;5288;42.334;23.876;2022-07-15T05:10:57;4.47;;;3.73;;
10481;SDS011;5288;42.334;23.876;2022-07-15T05:13:29;3.53;;;3.23;;
10481;SDS011;5288;42.334;23.876;2022-07-15T05:15:57;5.47;;;3.17;;
10481;SDS011;5288;42.334;23.876;2022-07-15T05:18:25;6.47;;;4.13;;
10481;SDS011;5288;42.334;23.876;2022-07-15T05:20:52;4.97;;;3.60;;
10481;SDS011;5288;42.334;23.876;2022-07-15T05:23:20;4.57;;;4.10;;
10481;SDS011;5288;42.334;23.876;2022-07-15T05:25:47;5.83;;;3.93;;
10481;SDS011;5288;42.334;23.876;2022-07-15T05:28:14;8.30;;;3.73;;
10481;SDS011;5288;42.334;23.876;2022-07-15T05:30:41;8.07;;;3.63;;
10481;SDS011;5288;42.334;23.876;2022-07-15T05:33:08;4.97;;;3.40;;
10481;SDS011;5288;42.334;23.876;2022-07-15T05:35:37;3.57;;;3.30;;
10481;SDS011;5288;42.334;23.876;2022-07-15T05:38:04;3.23;;;2.90;;
10481;SDS011;5288;42.334;23.876;2022-07-15T05:40:32;3.23;;;2.93;;
10481;SDS011;5288;42.334;23.876;2022-07-15T05:42:59;2.90;;;2.60;;
10481;SDS011;5288;42.334;23.876;2022-07-15T05:45:26;2.77;;;2.57;;
10481;SDS011;5288;42.334;23.876;2022-07-15T05:47:53;4.03;;;2.67;;
10481;SDS011;5288;42.334;23.876;2022-07-15T05:50:20;4.33;;;3.00;;
10481;SDS011;5288;42.334;23.876;2022-07-15T05:52:49;7.73;;;5.00;;
10481;SDS011;5288;42.334;23.876;2022-07-15T05:55:16;6.17;;;3.40;;
10481;SDS011;5288;42.334;23.876;2022-07-15T05:57:43;6.07;;;3.40;;
10481;SDS011;5288;42.334;23.876;2022-07-15T06:00:11;3.77;;;3.20;;
10481;SDS011;5288;42.334;23.876;2022-07-15T06:02:39;3.97;;;2.57;;
10481;SDS011;5288;42.334;23.876;2022-07-15T06:05:07;10.13;;;3.73;;
10481;SDS011;5288;42.334;23.876;2022-07-15T06:07:34;7.90;;;2.83;;
10481;SDS011;5288;42.334;23.876;2022-07-15T06:10:03;5.13;;;2.23;;
10481;SDS011;5288;42.334;23.876;2022-07-15T06:12:31;3.97;;;2.47;;
10481;SDS011;5288;42.334;23.876;2022-07-15T06:14:58;3.17;;;2.20;;
10481;SDS011;5288;42.334;23.876;2022-07-15T06:17:25;7.67;;;2.40;;
10481;SDS011;5288;42.334;23.876;2022-07-15T06:19:52;2.53;;;2.33;;
10481;SDS011;5288;42.334;23.876;2022-07-15T06:22:19;3.70;;;2.20;;
10481;SDS011;5288;42.334;23.876;2022-07-15T06:24:46;4.13;;;1.83;;
10481;SDS011;5288;42.334;23.876;2022-07-15T06:27:15;2.13;;;2.03;;
10481;SDS011;5288;42.334;23.876;2022-07-15T06:29:42;3.83;;;2.10;;
10481;SDS011;5288;42.334;23.876;2022-07-15T06:32:09;3.83;;;1.93;;
10481;SDS011;5288;42.334;23.876;2022-07-15T06:34:37;2.83;;;1.87;;
10481;SDS011;5288;42.334;23.876;2022-07-15T06:37:04;4.07;;;1.80;;
10481;SDS011;5288;42.334;23.876;2022-07-15T06:39:32;5.73;;;1.70;;
10481;SDS011;5288;42.334;23.876;2022-07-15T06:41:59;3.30;;;1.80;;
10481;SDS011;5288;42.334;23.876;2022-07-15T06:44:27;2.87;;;1.60;;
10481;SDS011;5288;42.334;23.876;2022-07-15T06:46:55;3.20;;;1.80;;
10481;SDS011;5288;42.334;23.876;2022-07-15T06:49:23;3.23;;;1.60;;
10481;SDS011;5288;42.334;23.876;2022-07-15T06:51:51;1.70;;;1.60;;
10481;SDS011;5288;42.334;23.876;2022-07-15T06:54:18;4.40;;;1.50;;
10481;SDS011;5288;42.334;23.876;2022-07-15T06:56:46;4.47;;;1.70;;
10481;SDS011;5288;42.334;23.876;2022-07-15T06:59:13;2.50;;;1.50;;
10481;SDS011;5288;42.334;23.876;2022-07-15T07:01:42;1.63;;;1.50;;
10481;SDS011;5288;42.334;23.876;2022-07-15T07:04:09;2.37;;;1.57;;
10481;SDS011;5288;42.334;23.876;2022-07-15T07:06:36;1.53;;;1.40;;
10481;SDS011;5288;42.334;23.876;2022-07-15T07:09:03;1.53;;;1.43;;
10481;SDS011;5288;42.334;23.876;2022-07-15T07:11:31;3.60;;;1.57;;
10481;SDS011;5288;42.334;23.876;2022-07-15T07:13:59;2.83;;;1.47;;
10481;SDS011;5288;42.334;23.876;2022-07-15T07:16:26;3.40;;;1.50;;
10481;SDS011;5288;42.334;23.876;2022-07-15T07:18:54;1.57;;;1.30;;
10481;SDS011;5288;42.334;23.876;2022-07-15T07:21:21;1.77;;;1.67;;
10481;SDS011;5288;42.334;23.876;2022-07-15T07:23:49;1.87;;;1.60;;
10481;SDS011;5288;42.334;23.876;2022-07-15T07:26:17;3.60;;;1.50;;
10481;SDS011;5288;42.334;23.876;2022-07-15T07:28:44;1.70;;;1.60;;
10481;SDS011;5288;42.334;23.876;2022-07-15T07:31:13;1.73;;;1.63;;
10481;SDS011;5288;42.334;23.876;2022-07-15T07:33:44;2.87;;;1.40;;
10481;SDS011;5288;42.334;23.876;2022-07-15T07:36:20;3.03;;;1.40;;
10481;SDS011;5288;42.334;23.876;2022-07-15T07:38:47;2.63;;;1.70;;
10481;SDS011;5288;42.334;23.876;2022-07-15T07:41:18;1.70;;;1.60;;
10481;SDS011;5288;42.334;23.876;2022-07-15T07:43:59;1.67;;;1.53;;
10481;SDS011;5288;42.334;23.876;2022-07-15T07:46:26;3.87;;;1.57;;
10481;SDS011;5288;42.334;23.876;2022-07-15T07:48:53;3.13;;;1.53;;
10481;SDS011;5288;42.334;23.876;2022-07-15T07:51:22;3.93;;;1.43;;
10481;SDS011;5288;42.334;23.876;2022-07-15T07:53:49;1.87;;;1.77;;
10481;SDS011;5288;42.334;23.876;2022-07-15T07:56:16;3.60;;;2.30;;
10481;SDS011;5288;42.334;23.876;2022-07-15T07:58:43;3.33;;;1.60;;
10481;SDS011;5288;42.334;23.876;2022-07-15T08:01:10;1.90;;;1.70;;
10481;SDS011;5288;42.334;23.876;2022-07-15T08:03:38;3.33;;;1.60;;
10481;SDS011;5288;42.334;23.876;2022-07-15T08:06:05;5.03;;;2.00;;
10481;SDS011;5288;42.334;23.876;2022-07-15T08:08:33;1.57;;;1.47;;
10481;SDS011;5288;42.334;23.876;2022-07-15T08:11:02;1.67;;;1.30;;
10481;SDS011;5288;42.334;23.876;2022-07-15T08:13:29;4.03;;;1.50;;
10481;SDS011;5288;42.334;23.876;2022-07-15T08:15:56;2.63;;;1.70;;
10481;SDS011;5288;42.334;23.876;2022-07-15T08:18:23;6.20;;;2.50;;
10481;SDS011;5288;42.334;23.876;2022-07-15T08:20:51;1.90;;;1.70;;
10481;SDS011;5288;42.334;23.876;2022-07-15T08:23:18;2.50;;;1.50;;
10481;SDS011;5288;42.334;23.876;2022-07-15T08:25:48;2.80;;;1.88;;
10481;SDS011;5288;42.334;23.876;2022-07-15T08:28:16;3.20;;;1.80;;
10481;SDS011;5288;42.334;23.876;2022-07-15T08:30:43;2.23;;;1.67;;
10481;SDS011;5288;42.334;23.876;2022-07-15T08:33:11;2.63;;;2.03;;
10481;SDS011;5288;42.334;23.876;2022-07-15T08:35:38;1.60;;;1.50;;
10481;SDS011;5288;42.334;23.876;2022-07-15T08:38:06;2.30;;;1.40;;
10481;SDS011;5288;42.334;23.876;2022-07-15T08:40:34;3.67;;;1.45;;
10481;SDS011;5288;42.334;23.876;2022-07-15T08:43:04;1.77;;;1.67;;
10481;SDS011;5288;42.334;23.876;2022-07-15T08:45:33;3.42;;;1.70;;
10481;SDS011;5288;42.334;23.876;2022-07-15T08:48:02;1.90;;;1.57;;
10481;SDS011;5288;42.334;23.876;2022-07-15T08:50:30;2.38;;;1.50;;
10481;SDS011;5288;42.334;23.876;2022-07-15T08:52:58;5.32;;;1.55;;
10481;SDS011;5288;42.334;23.876;2022-07-15T08:55:26;1.83;;;1.50;;
10481;SDS011;5288;42.334;23.876;2022-07-15T08:57:53;4.40;;;1.75;;
10481;SDS011;5288;42.334;23.876;2022-07-15T09:00:22;2.53;;;1.80;;
10481;SDS011;5288;42.334;23.876;2022-07-15T09:02:54;4.03;;;1.80;;
10481;SDS011;5288;42.334;23.876;2022-07-15T09:05:28;2.85;;;1.70;;
10481;SDS011;5288;42.334;23.876;2022-07-15T09:07:59;5.50;;;1.58;;
10481;SDS011;5288;42.334;23.876;2022-07-15T09:10:42;2.35;;;1.90;;
10481;SDS011;5288;42.334;23.876;2022-07-15T09:13:12;1.55;;;1.42;;
10481;SDS011;5288;42.334;23.876;2022-07-15T09:15:49;1.80;;;1.40;;
10481;SDS011;5288;42.334;23.876;2022-07-15T09:18:17;1.98;;;1.42;;
10481;SDS011;5288;42.334;23.876;2022-07-15T09:20:45;8.43;;;4.05;;
10481;SDS011;5288;42.334;23.876;2022-07-15T09:23:14;3.25;;;1.80;;
10481;SDS011;5288;42.334;23.876;2022-07-15T09:25:46;4.07;;;1.60;;
10481;SDS011;5288;42.334;23.876;2022-07-15T09:28:14;3.55;;;1.50;;
10481;SDS011;5288;42.334;23.876;2022-07-15T09:30:43;2.55;;;1.85;;
10481;SDS011;5288;42.334;23.876;2022-07-15T09:33:31;3.92;;;1.80;;
10481;SDS011;5288;42.334;23.876;2022-07-15T09:36:09;2.22;;;1.75;;
10481;SDS011;5288;42.334;23.876;2022-07-15T09:38:44;2.63;;;1.45;;
10481;SDS011;5288;42.334;23.876;2022-07-15T09:41:19;1.83;;;1.73;;
10481;SDS011;5288;42.334;23.876;2022-07-15T09:43:52;4.28;;;1.70;;
10481;SDS011;5288;42.334;23.876;2022-07-15T09:46:21;2.47;;;1.80;;
10481;SDS011;5288;42.334;23.876;2022-07-15T09:48:51;3.05;;;1.50;;
10481;SDS011;5288;42.334;23.876;2022-07-15T09:51:19;2.33;;;2.13;;
10481;SDS011;5288;42.334;23.876;2022-07-15T09:53:47;3.28;;;1.88;;
10481;SDS011;5288;42.334;23.876;2022-07-15T09:56:16;4.07;;;1.95;;
10481;SDS011;5288;42.334;23.876;2022-07-15T09:58:48;4.78;;;2.03;;
10481;SDS011;5288;42.334;23.876;2022-07-15T10:01:16;2.25;;;1.63;;
10481;SDS011;5288;42.334;23.876;2022-07-15T10:03:43;2.45;;;1.90;;
10481;SDS011;5288;42.334;23.876;2022-07-15T10:06:13;1.80;;;1.70;;
10481;SDS011;5288;42.334;23.876;2022-07-15T10:08:45;2.22;;;2.00;;
10481;SDS011;5288;42.334;23.876;2022-07-15T10:11:15;2.00;;;1.58;;
10481;SDS011;5288;42.334;23.876;2022-07-15T10:13:46;5.75;;;2.53;;
10481;SDS011;5288;42.334;23.876;2022-07-15T10:22:46;3.47;;;1.80;;
10481;SDS011;5288;42.334;23.876;2022-07-15T10:25:25;1.90;;;1.70;;
10481;SDS011;5288;42.334;23.876;2022-07-15T10:28:08;3.10;;;1.98;;
10481;SDS011;5288;42.334;23.876;2022-07-15T10:30:39;3.30;;;2.00;;
10481;SDS011;5288;42.334;23.876;2022-07-15T10:33:08;3.25;;;2.17;;
10481;SDS011;5288;42.334;23.876;2022-07-15T10:35:39;4.85;;;2.47;;
10481;SDS011;5288;42.334;23.876;2022-07-15T10:38:23;3.30;;;2.22;;
10481;SDS011;5288;42.334;23.876;2022-07-15T10:40:55;3.95;;;2.58;;
10481;SDS011;5288;42.334;23.876;2022-07-15T10:43:40;2.70;;;2.50;;
10481;SDS011;5288;42.334;23.876;2022-07-15T10:46:20;6.45;;;2.70;;
10481;SDS011;5288;42.334;23.876;2022-07-15T10:48:51;2.85;;;2.55;;
10481;SDS011;5288;42.334;23.876;2022-07-15T10:54:11;3.63;;;3.33;;
10481;SDS011;5288;42.334;23.876;2022-07-15T10:57:06;5.45;;;4.32;;
10481;SDS011;5288;42.334;23.876;2022-07-15T10:59:37;4.82;;;4.10;;
10481;SDS011;5288;42.334;23.876;2022-07-15T11:02:10;4.35;;;3.95;;
10481;SDS011;5288;42.334;23.876;2022-07-15T11:04:39;5.50;;;4.00;;
10481;SDS011;5288;42.334;23.876;2022-07-15T11:07:23;3.92;;;3.63;;
10481;SDS011;5288;42.334;23.876;2022-07-15T11:09:53;4.43;;;4.03;;
10481;SDS011;5288;42.334;23.876;2022-07-15T11:12:22;3.75;;;3.40;;
10481;SDS011;5288;42.334;23.876;2022-07-15T11:14:51;3.95;;;3.65;;
10481;SDS011;5288;42.334;23.876;2022-07-15T11:17:21;3.05;;;2.80;;
10481;SDS011;5288;42.334;23.876;2022-07-15T11:19:50;4.88;;;3.20;;
10481;SDS011;5288;42.334;23.876;2022-07-15T11:22:20;4.95;;;3.70;;
10481;SDS011;5288;42.334;23.876;2022-07-15T11:24:49;6.43;;;3.33;;
10481;SDS011;5288;42.334;23.876;2022-07-15T11:27:19;3.45;;;3.15;;
10481;SDS011;5288;42.334;23.876;2022-07-15T11:29:47;3.47;;;3.17;;
10481;SDS011;5288;42.334;23.876;2022-07-15T11:32:17;5.32;;;3.08;;
10481;SDS011;5288;42.334;23.876;2022-07-15T11:34:46;3.40;;;3.10;;
10481;SDS011;5288;42.334;23.876;2022-07-15T11:37:15;3.50;;;3.20;;
10481;SDS011;5288;42.334;23.876;2022-07-15T11:39:48;3.13;;;2.80;;
10481;SDS011;5288;42.334;23.876;2022-07-15T11:42:22;3.58;;;2.90;;
10481;SDS011;5288;42.334;23.876;2022-07-15T11:45:09;3.28;;;2.97;;
10481;SDS011;5288;42.334;23.876;2022-07-15T11:47:49;2.85;;;2.58;;
10481;SDS011;5288;42.334;23.876;2022-07-15T11:50:18;4.70;;;2.85;;
10481;SDS011;5288;42.334;23.876;2022-07-15T11:52:45;4.28;;;2.83;;
10481;SDS011;5288;42.334;23.876;2022-07-15T11:55:13;2.60;;;2.40;;
10481;SDS011;5288;42.334;23.876;2022-07-15T11:57:45;2.45;;;2.28;;
10481;SDS011;5288;42.334;23.876;2022-07-15T12:00:13;3.28;;;2.30;;
10481;SDS011;5288;42.334;23.876;2022-07-15T12:02:41;2.70;;;2.47;;
10481;SDS011;5288;42.334;23.876;2022-07-15T12:05:08;2.22;;;1.95;;
10481;SDS011;5288;42.334;23.876;2022-07-15T12:07:42;2.83;;;2.10;;
10481;SDS011;5288;42.334;23.876;2022-07-15T12:10:11;3.28;;;2.10;;
10481;SDS011;5288;42.334;23.876;2022-07-15T12:12:42;4.53;;;2.20;;
10481;SDS011;5288;42.334;23.876;2022-07-15T12:15:19;3.35;;;2.28;;
10481;SDS011;5288;42.334;23.876;2022-07-15T12:17:47;3.80;;;2.42;;
10481;SDS011;5288;42.334;23.876;2022-07-15T12:20:15;6.20;;;2.38;;
10481;SDS011;5288;42.334;23.876;2022-07-15T12:25:31;2.83;;;2.53;;
10481;SDS011;5288;42.334;23.876;2022-07-15T12:27:58;3.30;;;2.72;;
10481;SDS011;5288;42.334;23.876;2022-07-15T12:30:31;3.47;;;2.50;;
10481;SDS011;5288;42.334;23.876;2022-07-15T12:33:12;3.95;;;2.55;;
10481;SDS011;5288;42.334;23.876;2022-07-15T12:35:40;2.85;;;2.40;;
10481;SDS011;5288;42.334;23.876;2022-07-15T12:38:07;2.85;;;2.30;;
10481;SDS011;5288;42.334;23.876;2022-07-15T12:40:34;2.35;;;2.10;;
10481;SDS011;5288;42.334;23.876;2022-07-15T12:43:02;4.57;;;2.53;;
10481;SDS011;5288;42.334;23.876;2022-07-15T12:45:36;3.83;;;3.10;;
10481;SDS011;5288;42.334;23.876;2022-07-15T12:48:05;5.45;;;2.80;;
10481;SDS011;5288;42.334;23.876;2022-07-15T12:50:34;2.40;;;2.20;;
10481;SDS011;5288;42.334;23.876;2022-07-15T12:53:23;2.72;;;2.25;;
10481;SDS011;5288;42.334;23.876;2022-07-15T12:55:53;3.20;;;2.60;;
10481;SDS011;5288;42.334;23.876;2022-07-15T12:58:26;7.85;;;2.60;;
10481;SDS011;5288;42.334;23.876;2022-07-15T13:01:04;3.53;;;2.65;;
10481;SDS011;5288;42.334;23.876;2022-07-15T13:03:34;2.40;;;2.17;;
10481;SDS011;5288;42.334;23.876;2022-07-15T13:06:02;4.78;;;2.58;;
10481;SDS011;5288;42.334;23.876;2022-07-15T13:08:30;3.03;;;2.55;;
10481;SDS011;5288;42.334;23.876;2022-07-15T13:10:59;3.33;;;2.55;;
10481;SDS011;5288;42.334;23.876;2022-07-15T13:13:29;4.13;;;2.80;;
10481;SDS011;5288;42.334;23.876;2022-07-15T13:16:16;2.58;;;2.38;;
10481;SDS011;5288;42.334;23.876;2022-07-15T13:18:43;4.07;;;2.25;;
10481;SDS011;5288;42.334;23.876;2022-07-15T13:21:10;3.30;;;2.50;;
10481;SDS011;5288;42.334;23.876;2022-07-15T13:23:37;6.32;;;3.25;;
10481;SDS011;5288;42.334;23.876;2022-07-15T13:26:06;3.45;;;2.55;;
10481;SDS011;5288;42.334;23.876;2022-07-15T13:28:33;6.72;;;2.60;;
10481;SDS011;5288;42.334;23.876;2022-07-15T13:31:00;7.70;;;2.85;;
10481;SDS011;5288;42.334;23.876;2022-07-15T13:33:31;2.55;;;2.35;;
10481;SDS011;5288;42.334;23.876;2022-07-15T13:35:58;3.10;;;2.88;;
10481;SDS011;5288;42.334;23.876;2022-07-15T13:38:25;4.95;;;2.47;;
10481;SDS011;5288;42.334;23.876;2022-07-15T13:40:52;4.45;;;3.55;;
10481;SDS011;5288;42.334;23.876;2022-07-15T13:43:19;4.90;;;4.40;;
10481;SDS011;5288;42.334;23.876;2022-07-15T13:45:46;2.50;;;2.30;;
10481;SDS011;5288;42.334;23.876;2022-07-15T13:48:13;2.60;;;2.40;;
10481;SDS011;5288;42.334;23.876;2022-07-15T13:50:42;4.32;;;3.00;;
10481;SDS011;5288;42.334;23.876;2022-07-15T13:53:26;3.30;;;2.33;;
10481;SDS011;5288;42.334;23.876;2022-07-15T13:55:53;4.60;;;2.53;;
10481;SDS011;5288;42.334;23.876;2022-07-15T13:58:20;3.83;;;2.40;;
10481;SDS011;5288;42.334;23.876;2022-07-15T14:00:47;2.35;;;2.15;;
10481;SDS011;5288;42.334;23.876;2022-07-15T14:03:15;2.30;;;2.15;;
10481;SDS011;5288;42.334;23.876;2022-07-15T14:05:44;4.43;;;2.17;;
10481;SDS011;5288;42.334;23.876;2022-07-15T14:08:11;2.90;;;2.50;;
10481;SDS011;5288;42.334;23.876;2022-07-15T14:10:38;5.45;;;2.30;;
10481;SDS011;5288;42.334;23.876;2022-07-15T14:13:05;3.08;;;2.40;;
10481;SDS011;5288;42.334;23.876;2022-07-15T14:15:32;5.78;;;2.78;;
10481;SDS011;5288;42.334;23.876;2022-07-15T14:17:59;4.00;;;3.08;;
10481;SDS011;5288;42.334;23.876;2022-07-15T14:20:26;8.30;;;3.38;;
10481;SDS011;5288;42.334;23.876;2022-07-15T14:22:54;3.50;;;2.20;;
10481;SDS011;5288;42.334;23.876;2022-07-15T14:25:22;2.80;;;2.60;;
10481;SDS011;5288;42.334;23.876;2022-07-15T14:27:51;2.45;;;2.28;;
10481;SDS011;5288;42.334;23.876;2022-07-15T14:30:18;2.50;;;2.30;;
10481;SDS011;5288;42.334;23.876;2022-07-15T14:32:45;4.80;;;2.17;;
10481;SDS011;5288;42.334;23.876;2022-07-15T14:35:12;3.42;;;2.08;;
10481;SDS011;5288;42.334;23.876;2022-07-15T14:37:39;4.50;;;2.13;;
10481;SDS011;5288;42.334;23.876;2022-07-15T14:40:08;4.25;;;2.47;;
10481;SDS011;5288;42.334;23.876;2022-07-15T14:42:35;2.40;;;2.17;;
10481;SDS011;5288;42.334;23.876;2022-07-15T14:45:04;3.63;;;2.25;;
10481;SDS011;5288;42.334;23.876;2022-07-15T14:47:32;2.92;;;2.35;;
10481;SDS011;5288;42.334;23.876;2022-07-15T14:49:59;11.60;;;3.00;;
10481;SDS011;5288;42.334;23.876;2022-07-15T14:52:26;3.83;;;2.20;;
10481;SDS011;5288;42.334;23.876;2022-07-15T14:54:53;2.22;;;2.03;;
10481;SDS011;5288;42.334;23.876;2022-07-15T14:57:21;2.60;;;2.40;;
10481;SDS011;5288;42.334;23.876;2022-07-15T14:59:48;2.20;;;2.00;;
10481;SDS011;5288;42.334;23.876;2022-07-15T15:02:15;2.63;;;1.98;;
10481;SDS011;5288;42.334;23.876;2022-07-15T15:04:44;4.80;;;2.80;;
10481;SDS011;5288;42.334;23.876;2022-07-15T15:07:11;8.00;;;5.55;;
10481;SDS011;5288;42.334;23.876;2022-07-15T15:09:38;6.60;;;3.90;;
10481;SDS011;5288;42.334;23.876;2022-07-15T15:12:05;3.40;;;2.80;;